Meteo Giornale » Osservazioni meteo Stati Uniti (USA) » Muskegon
ore: 01:55 - Osservazioni Meteo Muskegon
Lat. 43° 10' N Lon. 86° 14' W Alt. 191 metri s.l.m.
22 °C
Sereno
Temp. 24 Ore
21 °C
28 °C
Sud/Sud-Ovest
9.3 Km/h
Dew point 21 °C
Umidità 94 %
Visibilità 10 Km
Il sole sorge alle ore 07:09
Il sole tramonta alle ore 20:20
| Data e Ora | Cielo e Fenomeni | T °C | DP °C | Um. % | Pres. hPa | Vis. km | Vento km/h | |
|---|---|---|---|---|---|---|---|---|
| Oggi h: 01:55 | Sereno | 22 | 21 | 94 | 1013 | 10 | S/SO 9.3 | |
| Oggi h: 00:55 | Sereno | 23 | 21 | 88 | 1013 | 10 | S/SO 7.4 | |
| Ieri h: 23:55 | Sereno | 23 | 21 | 88 | 1013 | 10 | S/SO 7.4 | |
| Ieri h: 22:55 | Molto Nuvoloso | 24 | 21 | 83 | 1014 | 10 | SO 9.3 | |
| Ieri h: 21:55 | Molto Nuvoloso | 24 | 21 | 83 | 1013 | 10 | SO 13 | |
| Ieri h: 20:55 | Molto Nuvoloso | 24 | 21 | 83 | 1013 | 10 | S/SO 9.3 | |
| Ieri h: 19:55 | Molto Nuvoloso | 25 | 21 | 78 | 1013 | 10 | SO 16.7 | |
| Ieri h: 18:55 | Molto Nuvoloso | 26 | 21 | 73 | 1012 | 10 | S/SO 20.3 | |
| Ieri h: 17:55 | Molto Nuvoloso | 26 | 20 | 69 | 1012 | 10 | S/SO 25.9 | |
| Ieri h: 16:55 | Nuvoloso | 27 | 19 | 61 | 1012 | 10 | S/SO 29.6 | |
| Ieri h: 15:55 | Nuvoloso | 28 | 19 | 58 | 1012 | 10 | S 27.8 | |
| Ieri h: 14:55 | Molto Nuvoloso | 25 | 20 | 73 | 1013 | 10 | S 16.7 | |
| Ieri h: 14:43 | Molto Nuvoloso | 24 | 20 | 78 | 1013 | 10 | S 14.8 | |
| Ieri h: 13:55 | Temporale | 23 | 19 | 78 | 1014 | 10 | S 25.9 | |
| Ieri h: 13:26 | Temporale | 24 | 19 | 73 | 1014 | 10 | S/SO 22.2 | |
| Ieri h: 12:55 | Nuvoloso | 26 | 19 | 65 | 1014 | 10 | S 33.3 | |
| Ieri h: 11:55 | Molto Nuvoloso | 25 | 20 | 73 | 1014 | 10 | S 27.8 | |
| Ieri h: 10:55 | Molto Nuvoloso | 23 | 20 | 83 | 1014 | 10 | S 20.3 | |
| Ieri h: 09:55 | Coperto | 22 | 20 | 88 | 1015 | 10 | S/SE 11.1 | |
| Ieri h: 08:55 | Pioggia | 22 | 20 | 88 | 1015 | 10 | SO 11.1 | |
| Ieri h: 07:55 | Molto Nuvoloso | 21 | 19 | 88 | 1015 | 10 | N 5.5 | |
| Ieri h: 06:55 | Nuvoloso | 21 | 19 | 88 | 1014 | 10 | SE 9.3 | |
| Ieri h: 05:55 | Molto Nuvoloso | 22 | 21 | 94 | 1014 | 10 | S/SE 11.1 | |
| Ieri h: 04:55 | Poco Nuvoloso | 21 | 20 | 94 | 1015 | 10 | N 0 | |
| Ieri h: 03:55 | Sereno | 21 | 20 | 94 | 1015 | 10 | N 0 | |
| Ieri h: 02:55 | Sereno | 21 | 20 | 94 | 1015 | 10 | N 5.5 | |



